Elton, Pennsylvania
Current Conditions -  °F | °C
As of 7:54 AM on Wednesday 22 Oct 2014 (Local Time) from KJST Reporting Station
Overcast Overcast  
Wind Chill:   Ceiling: 700
Heat Index:   Visibility: 10mi
Dew Point:   Wind: 12mph
Humidity: 89%   Direction: 330°NNW
Pressure: 30.03"   Gusts: NA
Location:  40.28°N, 78.8°W
Report Text: KJST 221154Z AUTO 33010KT 10SM OVC007 07/05 A3003 RMK AO2 SLP180 60005 70028 T00670050 10078 20067 53016
Loading
Personal Weather Stations






























Interactive Weather Map
Tropical Storm Tracking
New forecast layout! Learn more

10-Day Weather Forecast

Advertisements
Track Severe Weather on mobile